createdAt,value
2018-03-22T00:01:55.659Z,55.43
2018-03-22T00:04:23.172Z,45.07
2018-03-22T00:06:50.724Z,43.07
2018-03-22T00:09:18.240Z,45.60
2018-03-22T00:11:45.775Z,52.73
2018-03-22T00:14:14.052Z,46.97
2018-03-22T00:16:42.356Z,43.00
2018-03-22T00:19:09.869Z,44.90
2018-03-22T00:21:38.172Z,49.63
2018-03-22T00:24:05.692Z,42.90
2018-03-22T00:26:33.223Z,41.50
2018-03-22T00:29:00.747Z,42.07
2018-03-22T00:31:32.119Z,43.10
2018-03-22T00:33:59.629Z,42.67
2018-03-22T00:36:27.152Z,39.23
2018-03-22T00:38:54.662Z,44.43
2018-03-22T00:41:22.950Z,45.20
2018-03-22T00:43:50.462Z,49.33
2018-03-22T00:46:17.982Z,47.87
2018-03-22T00:48:45.491Z,45.20
2018-03-22T00:51:13.020Z,49.77
2018-03-22T00:53:40.526Z,45.77
2018-03-22T00:56:08.815Z,43.37
2018-03-22T00:58:36.326Z,47.23
2018-03-22T01:01:03.857Z,38.37
2018-03-22T01:03:31.370Z,36.83
2018-03-22T01:05:59.664Z,36.67
2018-03-22T01:08:27.179Z,41.73
2018-03-22T01:10:54.710Z,41.13
2018-03-22T01:13:22.219Z,43.13
2018-03-22T01:15:50.512Z,36.60
2018-03-22T01:18:18.032Z,37.40
2018-03-22T01:20:45.799Z,39.77
2018-03-22T01:23:13.308Z,30.43
2018-03-22T01:25:40.830Z,28.70
2018-03-22T01:28:09.106Z,32.30
2018-03-22T01:30:37.406Z,35.27
2018-03-22T01:33:04.911Z,51.27
2018-03-22T01:35:33.210Z,26.73
2018-03-22T01:38:00.719Z,32.63
2018-03-22T01:40:28.247Z,34.33
2018-03-22T01:42:56.519Z,26.47
2018-03-22T01:45:24.030Z,30.10
2018-03-22T01:47:51.570Z,30.57
2018-03-22T01:50:19.075Z,29.63
2018-03-22T01:52:58.615Z,27.33
2018-03-22T01:55:26.125Z,30.47
2018-03-22T01:57:53.646Z,32.97
2018-03-22T02:00:21.926Z,26.60
2018-03-22T02:02:50.223Z,26.80
2018-03-22T02:05:17.730Z,32.53
2018-03-22T02:07:45.250Z,32.20
2018-03-22T02:10:12.750Z,28.87
2018-03-22T02:12:40.281Z,24.80
2018-03-22T02:15:07.794Z,34.40
2018-03-22T02:17:36.084Z,26.50
2018-03-22T02:20:03.586Z,27.73
2018-03-22T02:22:31.108Z,28.50
2018-03-22T02:24:58.615Z,31.40
2018-03-22T02:27:26.153Z,36.27
2018-03-22T02:29:53.660Z,31.33
2018-03-22T02:32:21.946Z,28.67
2018-03-22T02:34:49.459Z,32.30
2018-03-22T02:37:16.984Z,29.63
2018-03-22T02:39:44.491Z,35.07
2018-03-22T02:42:12.015Z,34.73
2018-03-22T02:44:39.523Z,44.60
2018-03-22T02:47:07.858Z,32.03
2018-03-22T02:49:35.351Z,32.90
2018-03-22T02:52:03.639Z,30.73
2018-03-22T02:54:31.906Z,33.10
2018-03-22T02:57:00.200Z,32.57
2018-03-22T02:59:27.717Z,32.80
2018-03-22T03:01:55.641Z,30.37
2018-03-22T03:04:23.147Z,30.07
2018-03-22T03:06:50.672Z,26.57
2018-03-22T03:09:18.178Z,40.83
2018-03-22T03:11:46.468Z,32.40
2018-03-22T03:14:14.742Z,27.67
2018-03-22T03:16:42.272Z,32.13
2018-03-22T03:19:09.784Z,27.73
2018-03-22T03:21:37.311Z,29.33
2018-03-22T03:24:05.583Z,30.87
2018-03-22T03:26:33.875Z,30.23
2018-03-22T03:29:01.386Z,27.33
2018-03-22T03:31:28.924Z,28.83
2018-03-22T03:33:56.430Z,27.63
2018-03-22T03:36:24.723Z,30.70
2018-03-22T03:38:52.230Z,30.37
2018-03-22T03:41:19.746Z,25.77
2018-03-22T03:43:47.318Z,27.83
2018-03-22T03:46:15.579Z,33.17
2018-03-22T03:48:43.082Z,31.93
2018-03-22T03:51:10.591Z,31.13
2018-03-22T03:53:38.122Z,31.20
2018-03-22T03:56:05.631Z,32.67
2018-03-22T03:58:33.158Z,36.70
2018-03-22T04:01:01.430Z,26.83
2018-03-22T04:03:29.858Z,28.47
2018-03-22T04:05:57.247Z,30.10
2018-03-22T04:08:24.779Z,35.03
2018-03-22T04:10:52.290Z,42.03
2018-03-22T04:13:20.584Z,31.10
2018-03-22T04:15:48.091Z,28.83
2018-03-22T04:18:15.624Z,29.13
2018-03-22T04:20:43.131Z,33.57
2018-03-22T04:23:11.424Z,35.50
2018-03-22T04:25:38.939Z,33.60
2018-03-22T04:28:06.463Z,32.77
2018-03-22T04:30:33.978Z,29.60
2018-03-22T04:33:02.267Z,29.40
2018-03-22T04:35:30.548Z,26.57
2018-03-22T04:37:58.071Z,29.83
2018-03-22T04:40:25.585Z,34.50
2018-03-22T04:42:53.391Z,30.00
2018-03-22T04:45:20.895Z,28.80
2018-03-22T04:47:48.418Z,33.33
2018-03-22T04:50:15.926Z,40.33
2018-03-22T04:52:43.472Z,32.03
2018-03-22T04:55:10.978Z,33.37
2018-03-22T04:57:38.511Z,30.27
2018-03-22T05:00:06.024Z,27.23
2018-03-22T05:02:34.318Z,31.60
2018-03-22T05:05:01.823Z,30.07
2018-03-22T05:07:29.343Z,39.10
2018-03-22T05:09:56.851Z,32.97
2018-03-22T05:12:25.150Z,35.30
2018-03-22T05:14:53.425Z,37.57
2018-03-22T05:17:21.719Z,39.90
2018-03-22T05:19:49.223Z,31.27
2018-03-22T05:22:16.750Z,31.53
2018-03-22T05:24:44.250Z,32.43
2018-03-22T05:27:11.770Z,35.13
2018-03-22T05:29:39.274Z,33.27
2018-03-22T05:32:06.795Z,30.47
2018-03-22T05:34:34.307Z,41.37
2018-03-22T05:37:02.599Z,32.33
2018-03-22T05:39:30.108Z,33.60
2018-03-22T05:41:57.635Z,34.50
2018-03-22T05:44:25.144Z,33.57
2018-03-22T05:46:52.718Z,32.63
2018-03-22T05:49:21.032Z,34.67
2018-03-22T05:51:48.538Z,29.23
2018-03-22T05:54:16.878Z,30.27
2018-03-22T05:56:44.382Z,29.00
2018-03-22T05:59:12.674Z,27.53
2018-03-22T06:01:40.179Z,34.53
2018-03-22T06:04:07.712Z,31.07
2018-03-22T06:06:35.248Z,27.77
2018-03-22T06:09:03.142Z,30.07
2018-03-22T06:11:30.829Z,27.10
2018-03-22T06:13:58.351Z,29.17
2018-03-22T06:16:25.859Z,25.33
2018-03-22T06:18:53.383Z,33.07
2018-03-22T06:21:20.891Z,38.22
2018-03-22T06:23:49.183Z,30.33
2018-03-22T06:26:16.699Z,30.50
2018-03-22T06:28:44.222Z,33.20
2018-03-22T06:31:11.723Z,30.00
2018-03-22T06:33:39.245Z,28.83
2018-03-22T06:36:06.779Z,26.47
2018-03-22T06:38:34.302Z,30.80
2018-03-22T06:41:01.819Z,26.97
2018-03-22T06:43:29.347Z,28.40
2018-03-22T06:45:57.618Z,26.93
2018-03-22T06:48:25.911Z,27.33
2018-03-22T06:50:53.422Z,24.90
2018-03-22T06:53:20.938Z,27.00
2018-03-22T06:55:48.444Z,28.53
2018-03-22T06:58:15.967Z,22.80
2018-03-22T07:00:43.483Z,23.50
2018-03-22T07:03:11.772Z,28.37
2018-03-22T07:05:39.288Z,26.97
2018-03-22T07:08:06.807Z,21.37
2018-03-22T07:10:34.314Z,23.10
2018-03-22T07:13:01.839Z,24.90
2018-03-22T07:15:29.349Z,22.33
2018-03-22T07:17:57.642Z,24.47
2018-03-22T07:20:25.147Z,19.50
2018-03-22T07:22:52.670Z,21.37
2018-03-22T07:25:20.179Z,24.87
2018-03-22T07:27:47.699Z,24.27
2018-03-22T07:30:15.214Z,21.87
2018-03-22T07:32:43.516Z,26.50
2018-03-22T07:35:11.019Z,22.43
2018-03-22T07:37:38.542Z,21.57
2018-03-22T07:40:06.123Z,25.17
2018-03-22T07:42:34.358Z,19.90
2018-03-22T07:45:07.490Z,23.00
2018-03-22T07:47:35.021Z,19.67
2018-03-22T07:50:02.530Z,21.30
2018-03-22T07:52:30.051Z,20.63
2018-03-22T07:54:58.320Z,21.07
2018-03-22T07:57:25.832Z,19.87
2018-03-22T07:59:54.119Z,18.23
2018-03-22T08:02:22.384Z,20.17
2018-03-22T08:04:50.666Z,18.57
2018-03-22T08:07:18.935Z,17.60
2018-03-22T08:09:47.224Z,17.93
2018-03-22T08:12:15.495Z,20.10
2018-03-22T08:14:43.771Z,19.73
2018-03-22T08:17:12.046Z,19.17
2018-03-22T08:19:40.335Z,18.57
2018-03-22T08:22:07.834Z,22.20
2018-03-22T08:24:35.347Z,14.07
2018-03-22T08:27:02.851Z,18.97
2018-03-22T08:29:30.362Z,15.33
2018-03-22T08:31:57.862Z,14.70
2018-03-22T08:34:25.374Z,18.40
2018-03-22T08:36:53.634Z,16.80
2018-03-22T08:39:21.922Z,14.17
2018-03-22T08:41:50.182Z,16.10
2018-03-22T08:44:17.699Z,16.93
2018-03-22T08:46:45.198Z,11.40
2018-03-22T08:49:12.715Z,12.83
2018-03-22T08:51:40.215Z,14.80
2018-03-22T08:54:07.726Z,11.23
2018-03-22T08:56:35.532Z,14.53
2018-03-22T08:59:03.047Z,13.93
2018-03-22T09:01:30.543Z,13.43
2018-03-22T09:03:58.062Z,17.00
2018-03-22T09:06:25.566Z,15.27
2018-03-22T09:08:53.082Z,15.10
2018-03-22T09:11:20.587Z,17.63
2018-03-22T09:13:48.862Z,14.10
2018-03-22T09:16:16.361Z,13.97
2018-03-22T09:18:43.886Z,12.40
2018-03-22T09:21:12.150Z,10.07
2018-03-22T09:23:39.663Z,9.80
2018-03-22T09:26:07.167Z,15.27
2018-03-22T09:28:34.678Z,10.67
2018-03-22T09:31:02.179Z,9.93
2018-03-22T09:33:29.701Z,15.27
2018-03-22T09:35:57.599Z,11.60
2018-03-22T09:38:25.126Z,12.90
2018-03-22T09:40:52.623Z,12.93
2018-03-22T09:43:20.143Z,13.23
2018-03-22T09:45:47.793Z,10.07
2018-03-22T09:48:15.415Z,12.40
2018-03-22T09:50:43.591Z,13.50
2018-03-22T09:53:11.879Z,15.20
2018-03-22T09:55:39.394Z,16.40
2018-03-22T09:58:06.887Z,18.53
2018-03-22T10:00:35.171Z,10.60
2018-03-22T10:03:02.667Z,12.00
2018-03-22T10:05:30.180Z,11.70
2018-03-22T10:07:58.443Z,13.03
2018-03-22T10:10:26.728Z,11.27
2018-03-22T10:12:54.991Z,10.53
2018-03-22T10:15:23.274Z,9.87
2018-03-22T10:17:51.535Z,11.70
2018-03-22T10:20:19.055Z,12.80
2018-03-22T10:22:47.326Z,10.40
2018-03-22T10:25:14.855Z,12.80
2018-03-22T10:27:43.125Z,14.47
2018-03-22T10:30:11.423Z,11.10
2018-03-22T10:32:38.924Z,13.90
2018-03-22T10:35:06.440Z,15.80
2018-03-22T10:37:33.949Z,13.10
2018-03-22T10:40:01.468Z,15.67
2018-03-22T10:42:29.227Z,11.47
2018-03-22T10:44:56.742Z,13.27
2018-03-22T10:47:25.009Z,17.40
2018-03-22T10:49:52.527Z,16.03
2018-03-22T10:52:20.026Z,14.80
2018-03-22T10:54:47.546Z,14.20
2018-03-22T10:57:15.046Z,15.90
2018-03-22T10:59:42.564Z,18.33
2018-03-22T11:02:15.802Z,10.80
2018-03-22T11:04:44.086Z,13.27
2018-03-22T11:07:12.351Z,14.33
2018-03-22T11:09:40.650Z,16.63
2018-03-22T11:12:08.147Z,13.47
2018-03-22T11:14:35.671Z,16.03
2018-03-22T11:17:03.174Z,16.07
2018-03-22T11:19:30.698Z,13.70
2018-03-22T11:21:58.205Z,14.97
2018-03-22T11:24:25.727Z,13.13
2018-03-22T11:26:53.227Z,12.60
2018-03-22T11:29:20.747Z,17.00
2018-03-22T11:31:48.243Z,15.73
2018-03-22T11:34:15.759Z,14.60
2018-03-22T11:36:43.259Z,16.83
2018-03-22T11:39:10.776Z,17.13
2018-03-22T11:41:38.275Z,15.70
2018-03-22T11:44:05.788Z,17.43
2018-03-22T11:46:33.291Z,16.80
2018-03-22T11:49:00.820Z,15.37
2018-03-22T11:51:28.325Z,18.53
2018-03-22T11:53:56.584Z,15.37
2018-03-22T11:56:24.160Z,15.70
2018-03-22T11:58:51.633Z,16.20
2018-03-22T12:01:19.146Z,13.00
2018-03-22T12:03:46.660Z,12.73
2018-03-22T12:06:14.178Z,15.90
2018-03-22T12:08:41.683Z,12.00
2018-03-22T12:11:09.228Z,14.60
2018-03-22T12:13:36.718Z,14.20
2018-03-22T12:16:04.236Z,13.47
2018-03-22T12:18:31.743Z,14.67
2018-03-22T12:20:59.254Z,13.37
2018-03-22T12:23:26.760Z,13.20
2018-03-22T12:25:54.271Z,13.40
2018-03-22T12:28:21.773Z,15.83
2018-03-22T12:30:49.303Z,12.97
2018-03-22T12:33:16.823Z,16.33
2018-03-22T12:35:45.109Z,14.93
2018-03-22T12:38:13.380Z,11.83
2018-03-22T12:40:41.667Z,14.20
2018-03-22T12:43:09.190Z,12.13
2018-03-22T12:45:37.496Z,17.27
2018-03-22T12:48:05.003Z,11.73
2018-03-22T12:50:32.523Z,13.67
2018-03-22T12:53:00.027Z,12.57
2018-03-22T12:55:27.546Z,10.67
2018-03-22T12:57:55.051Z,13.20
2018-03-22T13:00:22.570Z,13.53
2018-03-22T13:02:50.078Z,15.33
2018-03-22T13:05:17.598Z,16.37
2018-03-22T13:07:45.876Z,12.73
2018-03-22T13:10:13.409Z,14.47
2018-03-22T13:12:40.918Z,15.10
2018-03-22T13:15:08.446Z,20.23
2018-03-22T13:17:35.975Z,16.40
2018-03-22T13:20:03.485Z,16.60
2018-03-22T13:22:31.012Z,16.40
2018-03-22T13:24:58.527Z,10.70
2018-03-22T13:27:26.823Z,12.03
2018-03-22T13:29:55.149Z,11.77
2018-03-22T13:32:22.634Z,14.50
2018-03-22T13:34:50.135Z,15.60
2018-03-22T13:37:17.679Z,10.30
2018-03-22T13:39:46.084Z,14.17
2018-03-22T13:42:14.372Z,12.03
2018-03-22T13:44:48.287Z,12.93
2018-03-22T13:47:15.807Z,12.27
2018-03-22T13:49:43.312Z,15.40
2018-03-22T13:52:10.836Z,10.30
2018-03-22T13:54:38.343Z,10.80
2018-03-22T13:57:05.864Z,11.70
2018-03-22T13:59:33.367Z,10.87
2018-03-22T14:02:01.647Z,9.83
2018-03-22T14:04:29.914Z,12.80
2018-03-22T14:06:58.199Z,12.73
2018-03-22T14:09:26.460Z,12.57
2018-03-22T14:11:53.982Z,10.70
2018-03-22T14:14:21.498Z,12.53
2018-03-22T14:16:49.788Z,11.60
2018-03-22T14:19:17.299Z,10.50
2018-03-22T14:21:44.823Z,13.83
2018-03-22T14:24:12.326Z,13.10
2018-03-22T14:26:39.838Z,10.60
2018-03-22T14:29:07.338Z,10.47
2018-03-22T14:31:34.850Z,11.30
2018-03-22T14:34:02.351Z,9.40
2018-03-22T14:36:29.872Z,11.80
2018-03-22T14:38:57.370Z,10.77
2018-03-22T14:41:24.889Z,10.37
2018-03-22T14:43:52.694Z,8.50
2018-03-22T14:46:20.210Z,9.63
2018-03-22T14:48:47.710Z,8.00
2018-03-22T14:51:15.670Z,7.87
2018-03-22T14:53:43.170Z,10.73
2018-03-22T14:56:10.696Z,11.23
2018-03-22T14:58:38.199Z,10.60
2018-03-22T15:01:06.015Z,11.20
2018-03-22T15:03:33.511Z,19.97
2018-03-22T15:06:01.031Z,18.60
2018-03-22T15:08:28.530Z,11.60
2018-03-22T15:10:56.047Z,14.17
2018-03-22T15:13:23.556Z,10.30
2018-03-22T15:15:51.058Z,13.80
2018-03-22T15:18:18.566Z,12.50
2018-03-22T15:20:46.073Z,12.73
2018-03-22T15:23:13.590Z,16.70
2018-03-22T15:25:41.091Z,10.23
2018-03-22T15:28:08.602Z,12.77
2018-03-22T15:30:36.101Z,11.47
2018-03-22T15:33:03.621Z,14.70
2018-03-22T15:35:31.118Z,16.57
2018-03-22T15:37:58.642Z,19.40
2018-03-22T15:40:26.140Z,17.77
2018-03-22T15:42:53.662Z,14.77
2018-03-22T15:45:21.166Z,13.40
2018-03-22T15:47:48.686Z,15.70
2018-03-22T15:50:16.184Z,16.13
2018-03-22T15:52:43.704Z,12.60
2018-03-22T15:55:11.202Z,15.30
2018-03-22T15:57:39.487Z,15.87
2018-03-22T16:00:07.755Z,12.87
2018-03-22T16:02:36.038Z,10.57
2018-03-22T16:05:04.298Z,9.93
2018-03-22T16:07:31.824Z,14.30
2018-03-22T16:09:59.331Z,13.67
2018-03-22T16:12:27.614Z,12.50
2018-03-22T16:14:55.895Z,12.13
2018-03-22T16:17:23.420Z,18.20
2018-03-22T16:19:50.923Z,17.70
2018-03-22T16:22:18.444Z,13.13
2018-03-22T16:24:45.948Z,11.47
2018-03-22T16:27:13.468Z,14.30
2018-03-22T16:29:41.734Z,15.50
2018-03-22T16:32:09.591Z,16.33
2018-03-22T16:34:37.100Z,15.23
2018-03-22T16:37:04.664Z,17.50
2018-03-22T16:39:32.906Z,17.10
2018-03-22T16:42:01.190Z,19.60
2018-03-22T16:44:29.472Z,19.60
2018-03-22T16:46:56.995Z,16.90
2018-03-22T16:49:24.499Z,17.17
2018-03-22T16:51:52.028Z,20.73
2018-03-22T16:54:20.307Z,21.93
2018-03-22T16:56:48.578Z,17.87
2018-03-22T16:59:16.864Z,18.67
2018-03-22T17:01:45.135Z,21.93
2018-03-22T17:04:13.424Z,21.77
2018-03-22T17:06:40.926Z,20.90
2018-03-22T17:09:08.442Z,20.17
2018-03-22T17:11:35.953Z,38.23
2018-03-22T17:14:03.476Z,29.63
2018-03-22T17:16:30.970Z,20.90
2018-03-22T17:18:58.491Z,18.60
2018-03-22T17:21:25.990Z,18.63
2018-03-22T17:23:53.502Z,21.33
2018-03-22T17:26:21.008Z,21.10
2018-03-22T17:28:48.777Z,27.53
2018-03-22T17:31:16.285Z,72.47
2018-03-22T17:33:43.807Z,70.17
2018-03-22T17:36:12.079Z,28.30
2018-03-22T17:38:40.378Z,18.90
2018-03-22T17:41:07.907Z,42.03
2018-03-22T17:43:35.416Z,40.30
2018-03-22T17:46:02.939Z,28.97
2018-03-22T17:48:31.216Z,18.30
2018-03-22T17:50:59.511Z,20.23
2018-03-22T17:53:27.022Z,21.50
2018-03-22T17:55:54.547Z,23.90
2018-03-22T17:58:22.058Z,22.03
2018-03-22T18:00:50.356Z,26.10
2018-03-22T18:03:17.863Z,26.37
2018-03-22T18:05:45.393Z,29.70
2018-03-22T18:08:12.899Z,31.10
2018-03-22T18:10:40.423Z,25.93
2018-03-22T18:13:07.926Z,26.57
2018-03-22T18:15:36.280Z,26.93
2018-03-22T18:18:04.583Z,23.23
2018-03-22T18:20:32.875Z,27.60
2018-03-22T18:23:00.395Z,32.00
2018-03-22T18:25:27.926Z,31.00
2018-03-22T18:27:55.448Z,26.97
2018-03-22T18:30:23.740Z,27.50
2018-03-22T18:32:51.259Z,29.80
2018-03-22T18:35:18.819Z,32.53
2018-03-22T18:37:46.327Z,32.90
2018-03-22T18:40:13.859Z,33.57
2018-03-22T18:42:41.380Z,28.67
2018-03-22T18:45:08.926Z,34.17
2018-03-22T18:47:36.441Z,29.40
2018-03-22T18:50:03.974Z,31.90
2018-03-22T18:52:32.259Z,28.43
2018-03-22T18:55:00.551Z,30.70
2018-03-22T18:57:28.080Z,34.53
2018-03-22T18:59:55.586Z,26.83
2018-03-22T19:02:23.115Z,25.73
2018-03-22T19:04:51.387Z,30.07
2018-03-22T19:07:19.708Z,26.10
2018-03-22T19:09:47.211Z,120.73
2018-03-22T19:12:15.503Z,22.97
2018-03-22T19:14:43.783Z,19.43
2018-03-22T19:17:11.310Z,19.80
2018-03-22T19:19:38.833Z,19.20
2018-03-22T19:22:06.362Z,18.87
2018-03-22T19:24:33.870Z,22.07
2018-03-22T19:27:01.399Z,19.97
2018-03-22T19:29:28.923Z,27.47
2018-03-22T19:31:57.227Z,21.30
2018-03-22T19:34:24.738Z,24.20
2018-03-22T19:36:52.266Z,20.90
2018-03-22T19:39:20.543Z,20.57
2018-03-22T19:41:48.067Z,23.93
2018-03-22T19:44:15.590Z,20.40
2018-03-22T19:46:43.116Z,20.80
2018-03-22T19:49:10.627Z,26.50
2018-03-22T19:51:38.919Z,22.07
2018-03-22T19:54:06.551Z,23.87
2018-03-22T19:56:34.852Z,22.83
2018-03-22T19:59:02.371Z,21.97
2018-03-22T20:01:29.902Z,26.97
2018-03-22T20:03:57.423Z,28.33
2018-03-22T20:06:24.991Z,24.47
2018-03-22T20:08:52.525Z,28.60
2018-03-22T20:11:20.996Z,33.23
2018-03-22T20:13:48.717Z,32.47
2018-03-22T20:16:16.341Z,32.07
2018-03-22T20:18:44.665Z,27.13
2018-03-22T20:21:12.228Z,29.40
2018-03-22T20:23:39.739Z,41.83
2018-03-22T20:26:07.270Z,31.37
2018-03-22T20:28:34.778Z,33.67
2018-03-22T20:31:02.307Z,29.37
2018-03-22T20:33:30.595Z,29.73
2018-03-22T20:35:58.124Z,29.40
2018-03-22T20:38:25.632Z,29.27
2018-03-22T20:40:53.162Z,28.10
2018-03-22T20:43:21.438Z,26.67
2018-03-22T20:45:49.732Z,27.57
2018-03-22T20:48:17.243Z,25.73
2018-03-22T20:50:44.772Z,23.73
2018-03-22T20:53:12.296Z,24.53
2018-03-22T20:55:40.860Z,22.03
2018-03-22T20:58:10.472Z,23.70
2018-03-22T21:00:39.446Z,24.43
2018-03-22T21:03:08.709Z,23.10
2018-03-22T21:05:37.572Z,27.67
2018-03-22T21:08:05.156Z,27.83
2018-03-22T21:10:32.667Z,27.53
2018-03-22T21:13:00.955Z,26.80
2018-03-22T21:15:29.227Z,20.43
2018-03-22T21:17:57.519Z,23.17
2018-03-22T21:20:25.031Z,27.53
2018-03-22T21:22:52.559Z,25.33
2018-03-22T21:25:20.075Z,28.23
2018-03-22T21:27:48.363Z,31.70
2018-03-22T21:30:15.878Z,45.97
2018-03-22T21:32:43.411Z,26.27
2018-03-22T21:35:10.930Z,24.90
2018-03-22T21:37:38.458Z,25.60
2018-03-22T21:40:05.962Z,27.07
2018-03-22T21:42:33.486Z,28.87
2018-03-22T21:45:00.999Z,23.60
2018-03-22T21:47:31.308Z,31.53
2018-03-22T21:49:58.818Z,84.93
2018-03-22T21:52:38.207Z,33.30
2018-03-22T21:55:05.718Z,69.30
2018-03-22T21:57:33.255Z,52.97
2018-03-22T22:00:00.768Z,150.50
2018-03-22T22:02:28.299Z,142.13
2018-03-22T22:04:56.629Z,38.57
2018-03-22T22:07:24.130Z,99.50
2018-03-22T22:09:51.639Z,76.60
2018-03-22T22:12:19.163Z,44.20
2018-03-22T22:14:47.447Z,29.70
2018-03-22T22:17:14.986Z,40.13
2018-03-22T22:19:43.260Z,34.93
2018-03-22T22:22:11.556Z,35.47
2018-03-22T22:24:39.121Z,32.10
2018-03-22T22:27:06.655Z,39.13
2018-03-22T22:29:34.934Z,35.20
2018-03-22T22:32:03.227Z,34.33
2018-03-22T22:34:30.744Z,40.10
2018-03-22T22:36:58.270Z,40.40
2018-03-22T22:39:25.783Z,40.30
2018-03-22T22:41:54.079Z,45.53
2018-03-22T22:44:21.596Z,39.57
2018-03-22T22:46:49.120Z,40.90
2018-03-22T22:49:16.631Z,38.97
2018-03-22T22:51:44.970Z,43.43
2018-03-22T22:54:12.495Z,44.10
2018-03-22T22:56:40.076Z,40.87
2018-03-22T22:59:07.554Z,43.20
2018-03-22T23:01:35.089Z,48.40
2018-03-22T23:04:02.599Z,46.83
2018-03-22T23:06:30.124Z,47.07
2018-03-22T23:08:57.639Z,41.90
2018-03-22T23:11:25.172Z,46.43
2018-03-22T23:13:53.464Z,48.90
2018-03-22T23:16:21.746Z,45.67
2018-03-22T23:18:49.275Z,47.67
2018-03-22T23:21:16.794Z,45.27
2018-03-22T23:23:44.319Z,47.50
2018-03-22T23:26:12.602Z,42.37
2018-03-22T23:28:40.130Z,46.87
2018-03-22T23:31:07.643Z,47.43
2018-03-22T23:33:35.171Z,44.73
2018-03-22T23:36:02.692Z,49.33
2018-03-22T23:38:30.218Z,44.80
2018-03-22T23:40:57.726Z,38.43
2018-03-22T23:43:25.255Z,49.30
2018-03-22T23:45:52.769Z,40.93
2018-03-22T23:48:20.296Z,48.03
2018-03-22T23:50:47.802Z,44.90
2018-03-22T23:53:15.335Z,50.17
2018-03-22T23:55:43.616Z,55.33
2018-03-22T23:58:11.143Z,50.23
